createdAt,value
2023-11-24T00:00:57.128Z,1957.63
2023-11-24T00:01:57.208Z,1961.93
2023-11-24T00:02:57.123Z,1942.03
2023-11-24T00:03:57.165Z,1926.67
2023-11-24T00:04:57.088Z,1936.42
2023-11-24T00:05:57.101Z,1930.83
2023-11-24T00:06:57.113Z,1926.67
2023-11-24T00:07:57.092Z,1930.83
2023-11-24T00:08:57.046Z,1926.67
2023-11-24T00:09:57.171Z,1925.29
2023-11-24T00:10:57.038Z,1928.06
2023-11-24T00:11:57.046Z,1915.65
2023-11-24T00:12:57.099Z,1910.19
2023-11-24T00:13:57.006Z,1928.06
2023-11-24T00:14:56.964Z,1929.44
2023-11-24T00:15:57.009Z,1961.93
2023-11-24T00:16:56.953Z,1969.14
2023-11-24T00:17:58.135Z,1982.25
2023-11-24T00:18:56.933Z,1977.86
2023-11-24T00:19:56.903Z,1982.25
2023-11-24T00:20:56.914Z,2018.07
2023-11-24T00:21:56.903Z,1988.13
2023-11-24T00:22:56.869Z,1980.78
2023-11-24T00:23:56.914Z,1977.86
2023-11-24T00:24:56.881Z,1959.06
2023-11-24T00:25:56.851Z,1953.35
2023-11-24T00:26:56.857Z,1972.04
2023-11-24T00:27:56.864Z,1985.19
2023-11-24T00:28:56.806Z,1959.06
2023-11-24T00:29:56.873Z,1964.81
2023-11-24T00:30:56.955Z,1930.83
2023-11-24T00:31:56.771Z,1928.06
2023-11-24T00:32:56.833Z,1878.06
2023-11-24T00:33:56.832Z,1875.44
2023-11-24T00:34:56.757Z,1857.24
2023-11-24T00:35:56.812Z,1862.40
2023-11-24T00:36:56.751Z,1863.70
2023-11-24T00:37:56.705Z,1889.99
2023-11-24T00:38:56.704Z,1870.20
2023-11-24T00:39:56.727Z,1883.34
2023-11-24T00:40:56.681Z,1880.70
2023-11-24T00:41:57.093Z,1858.53
2023-11-24T00:42:56.733Z,1813.26
2023-11-24T00:43:56.641Z,1868.90
2023-11-24T00:44:56.632Z,1878.06
2023-11-24T00:45:56.656Z,1884.67
2023-11-24T00:46:56.651Z,1903.41
2023-11-24T00:47:56.652Z,1917.02
2023-11-24T00:48:56.636Z,1933.62
2023-11-24T00:49:56.573Z,1933.62
2023-11-24T00:50:56.585Z,1918.40
2023-11-24T00:51:56.608Z,1926.67
2023-11-24T00:52:56.581Z,1911.55
2023-11-24T00:53:56.611Z,1928.06
2023-11-24T00:54:56.580Z,1928.06
2023-11-24T00:55:56.505Z,1925.29
2023-11-24T00:56:56.524Z,1953.35
2023-11-24T00:57:56.636Z,1956.20
2023-11-24T00:58:56.553Z,1963.37
2023-11-24T00:59:56.476Z,1935.02
2023-11-24T01:00:56.445Z,1940.62
2023-11-24T01:01:56.541Z,1966.25
2023-11-24T01:02:56.474Z,1991.08
2023-11-24T01:03:56.527Z,2025.70
2023-11-24T01:04:56.529Z,2016.55
2023-11-24T01:05:56.438Z,2050.50
2023-11-24T01:06:56.502Z,2031.84
2023-11-24T01:07:56.387Z,2064.71
2023-11-24T01:08:56.379Z,2071.10
2023-11-24T01:09:56.392Z,2072.70
2023-11-24T01:10:56.415Z,2047.36
2023-11-24T01:11:56.362Z,2045.80
2023-11-24T01:12:56.377Z,2067.90
2023-11-24T01:13:56.356Z,2056.79
2023-11-24T01:14:56.320Z,2064.71
2023-11-24T01:15:56.363Z,2113.56
2023-11-24T01:16:57.046Z,2133.76
2023-11-24T01:17:56.317Z,2163.03
2023-11-24T01:18:56.361Z,2185.97
2023-11-24T01:19:56.270Z,2200.33
2023-11-24T01:20:56.297Z,2250.21
2023-11-24T01:21:56.358Z,2278.91
2023-11-24T01:22:56.236Z,2310.34
2023-11-24T01:23:56.244Z,2298.46
2023-11-24T01:24:56.449Z,2355.01
2023-11-24T01:25:56.261Z,2322.36
2023-11-24T01:26:56.220Z,2352.94
2023-11-24T01:27:56.661Z,2324.37
2023-11-24T01:28:56.217Z,2332.46
2023-11-24T01:29:56.172Z,2342.66
2023-11-24T01:30:58.035Z,2326.39
2023-11-24T01:31:56.185Z,2336.53
2023-11-24T01:32:56.150Z,2318.34
2023-11-24T01:33:56.202Z,2346.76
2023-11-24T01:34:56.155Z,2388.59
2023-11-24T01:35:56.105Z,2416.59
2023-11-24T01:36:56.204Z,2423.15
2023-11-24T01:37:56.104Z,2420.96
2023-11-24T01:38:56.153Z,2429.74
2023-11-24T01:39:56.192Z,2447.49
2023-11-24T01:40:56.082Z,2431.94
2023-11-24T01:41:56.035Z,2427.54
2023-11-24T01:44:06.240Z,1382.87
2023-11-24T01:45:07.267Z,1739.13
2023-11-24T01:46:07.341Z,1933.62
2023-11-24T01:47:07.293Z,2061.54
2023-11-24T01:48:07.279Z,2159.55
2023-11-24T01:49:07.317Z,2191.33
2023-11-24T01:50:07.209Z,2250.21
2023-11-24T01:51:07.214Z,2298.46
2023-11-24T01:52:07.201Z,2314.33
2023-11-24T01:53:07.226Z,2340.61
2023-11-24T01:54:07.167Z,2405.75
2023-11-24T01:55:07.241Z,2384.34
2023-11-24T01:56:07.183Z,2382.22
2023-11-24T01:57:07.174Z,2359.15
2023-11-24T01:58:07.124Z,2369.58
2023-11-24T01:59:07.208Z,2332.46
2023-11-24T02:00:07.079Z,2340.61
2023-11-24T02:01:07.105Z,2369.58
2023-11-24T02:02:07.126Z,2375.89
2023-11-24T02:03:07.799Z,2369.58
2023-11-24T02:04:07.126Z,2340.61
2023-11-24T02:05:07.079Z,2344.71
2023-11-24T02:06:06.990Z,2342.66
2023-11-24T02:07:06.988Z,2346.76
2023-11-24T02:08:07.022Z,2344.71
2023-11-24T02:09:07.000Z,2336.53
2023-11-24T02:10:06.972Z,2320.35
2023-11-24T02:11:06.970Z,2338.57
2023-11-24T02:12:06.950Z,2350.88
2023-11-24T02:13:06.932Z,2365.40
2023-11-24T02:14:06.932Z,2373.78
2023-11-24T02:15:06.967Z,2380.11
2023-11-24T02:16:06.952Z,2359.15
2023-11-24T02:17:06.915Z,2334.49
2023-11-24T02:18:06.914Z,2316.33
2023-11-24T02:19:06.893Z,2302.41
2023-11-24T02:20:06.878Z,2240.80
2023-11-24T02:21:06.845Z,2222.22
2023-11-24T02:22:06.814Z,2173.56
2023-11-24T02:23:06.811Z,2095.39
2023-11-24T02:24:06.815Z,2027.23
2023-11-24T02:25:06.784Z,1923.91
2023-11-24T02:26:06.775Z,1821.89
2023-11-24T02:27:06.830Z,1716.85
2023-11-24T02:28:06.853Z,1608.64
2023-11-24T02:29:06.766Z,1503.93
2023-11-24T02:30:06.863Z,1394.38
2023-11-24T02:31:06.808Z,1307.32
2023-11-24T02:32:06.734Z,1205.04
2023-11-24T02:33:06.772Z,1117.60
2023-11-24T02:34:06.785Z,1029.19
2023-11-24T02:35:06.713Z,967.51
2023-11-24T02:36:06.687Z,899.93
2023-11-24T02:37:06.725Z,832.82
2023-11-24T02:38:06.642Z,765.28
2023-11-24T02:39:06.705Z,721.26
2023-11-24T02:40:06.733Z,692.89
2023-11-24T02:41:06.721Z,674.73
2023-11-24T02:42:06.616Z,671.34
2023-11-24T02:43:06.672Z,667.33
2023-11-24T02:44:06.624Z,652.37
2023-11-24T02:45:06.620Z,631.44
2023-11-24T02:46:06.584Z,612.94
2023-11-24T02:47:06.574Z,586.62
2023-11-24T02:48:06.607Z,567.71
2023-11-24T02:49:06.628Z,551.80
2023-11-24T02:50:06.538Z,528.28
2023-11-24T02:51:07.037Z,506.68
2023-11-24T02:52:06.583Z,485.73
2023-11-24T02:53:06.481Z,458.13
2023-11-24T02:54:06.469Z,431.83
2023-11-24T02:55:06.574Z,399.60
2023-11-24T02:56:06.482Z,367.33
2023-11-24T02:57:06.482Z,342.50
2023-11-24T02:58:06.477Z,318.02
2023-11-24T02:59:06.439Z,299.79
2023-11-24T03:00:06.426Z,282.80
2023-11-24T03:01:06.537Z,263.98
2023-11-24T03:02:06.470Z,250.72
2023-11-24T03:03:06.400Z,235.99
2023-11-24T03:04:06.498Z,225.33
2023-11-24T03:05:06.384Z,215.74
2023-11-24T03:06:06.388Z,207.97
2023-11-24T03:07:06.435Z,200.87
2023-11-24T03:08:06.337Z,196.09
2023-11-24T03:09:06.398Z,189.87
2023-11-24T03:10:06.383Z,186.11
2023-11-24T03:11:06.356Z,182.86
2023-11-24T03:12:06.318Z,175.76
2023-11-24T03:13:06.337Z,173.57
2023-11-24T03:14:06.284Z,171.44
2023-11-24T03:15:06.330Z,168.85
2023-11-24T03:16:06.263Z,166.01
2023-11-24T03:17:06.260Z,164.21
2023-11-24T03:18:06.270Z,161.68
2023-11-24T03:19:06.266Z,160.90
2023-11-24T03:20:06.223Z,155.24
2023-11-24T03:21:06.240Z,154.24
2023-11-24T03:22:06.253Z,149.02
2023-11-24T03:23:06.177Z,148.23
2023-11-24T03:24:06.162Z,143.90
2023-11-24T03:25:06.189Z,143.16
2023-11-24T03:26:06.174Z,143.28
2023-11-24T03:27:06.196Z,143.28
2023-11-24T03:28:06.179Z,141.95
2023-11-24T03:29:06.127Z,143.90
2023-11-24T03:30:06.147Z,145.02
2023-11-24T03:31:06.147Z,145.40
2023-11-24T03:32:06.101Z,144.15
2023-11-24T03:33:06.197Z,145.78
2023-11-24T03:34:06.151Z,141.95
2023-11-24T03:35:06.071Z,141.95
2023-11-24T03:36:06.020Z,143.90
2023-11-24T03:37:06.087Z,144.77
2023-11-24T03:38:06.019Z,144.02
2023-11-24T03:39:06.106Z,145.27
2023-11-24T03:40:06.058Z,145.27
2023-11-24T03:41:06.033Z,147.06
2023-11-24T03:42:06.001Z,146.54
2023-11-24T03:43:06.036Z,148.36
2023-11-24T03:44:05.949Z,147.58
2023-11-24T03:45:05.974Z,148.36
2023-11-24T03:46:05.994Z,147.06
2023-11-24T03:47:06.046Z,147.19
2023-11-24T03:48:05.943Z,145.90
2023-11-24T03:49:05.952Z,146.29
2023-11-24T03:50:05.901Z,143.28
2023-11-24T03:51:06.002Z,145.52
2023-11-24T03:52:05.921Z,145.27
2023-11-24T03:53:05.861Z,145.40
2023-11-24T03:54:05.885Z,144.27
2023-11-24T03:55:05.890Z,143.28
2023-11-24T03:56:05.849Z,141.35
2023-11-24T03:57:05.909Z,141.59
2023-11-24T03:58:05.974Z,141.11
2023-11-24T03:59:05.811Z,140.87
2023-11-24T04:00:05.784Z,139.70
2023-11-24T04:01:05.905Z,140.17
2023-11-24T04:02:06.017Z,140.64
2023-11-24T04:03:05.885Z,141.35
2023-11-24T04:04:05.809Z,141.47
2023-11-24T04:05:05.769Z,141.59
2023-11-24T04:06:05.739Z,140.05
2023-11-24T04:07:05.756Z,140.76
2023-11-24T04:08:05.693Z,140.87
2023-11-24T04:09:05.740Z,142.19
2023-11-24T04:10:05.729Z,143.78
2023-11-24T04:11:05.687Z,144.65
2023-11-24T04:12:05.717Z,145.52
2023-11-24T04:13:05.679Z,147.97
2023-11-24T04:14:05.686Z,150.90
2023-11-24T04:15:05.696Z,155.38
2023-11-24T04:16:05.683Z,157.87
2023-11-24T04:17:05.679Z,161.06
2023-11-24T04:18:05.773Z,161.84
2023-11-24T04:19:05.690Z,164.38
2023-11-24T04:20:05.616Z,167.50
2023-11-24T04:21:05.627Z,170.57
2023-11-24T04:22:05.606Z,174.12
2023-11-24T04:23:05.576Z,179.91
2023-11-24T04:24:05.547Z,183.66
2023-11-24T04:25:05.576Z,184.88
2023-11-24T04:26:05.532Z,186.52
2023-11-24T04:27:05.593Z,191.97
2023-11-24T04:28:05.573Z,197.50
2023-11-24T04:29:05.516Z,197.14
2023-11-24T04:30:05.515Z,202.60
2023-11-24T04:31:05.599Z,210.50
2023-11-24T04:32:05.454Z,219.48
2023-11-24T04:33:05.758Z,225.64
2023-11-24T04:34:05.559Z,230.54
2023-11-24T04:35:05.421Z,229.25
2023-11-24T04:36:05.464Z,231.02
2023-11-24T04:37:05.443Z,237.35
2023-11-24T04:38:05.406Z,245.12
2023-11-24T04:39:05.436Z,266.76
2023-11-24T04:40:05.425Z,290.53
2023-11-24T04:41:05.396Z,317.72
2023-11-24T04:42:05.385Z,331.47
2023-11-24T04:43:05.398Z,340.02
2023-11-24T04:44:05.344Z,355.82
2023-11-24T04:45:05.347Z,373.15
2023-11-24T04:46:05.409Z,387.79
2023-11-24T04:47:05.340Z,400.80
2023-11-24T04:48:05.383Z,414.96
2023-11-24T04:49:05.386Z,413.17
2023-11-24T04:50:05.783Z,411.89
2023-11-24T04:51:05.241Z,417.03
2023-11-24T04:52:05.333Z,421.49
2023-11-24T04:53:05.275Z,419.38
2023-11-24T04:54:05.226Z,435.48
2023-11-24T04:55:05.280Z,441.51
2023-11-24T04:56:05.230Z,453.78
2023-11-24T04:57:05.213Z,453.48
2023-11-24T04:58:05.265Z,444.74
2023-11-24T04:59:05.181Z,444.15
2023-11-24T05:00:05.184Z,449.82
2023-11-24T05:01:05.286Z,463.20
2023-11-24T05:02:05.398Z,467.08
2023-11-24T05:03:05.136Z,483.27
2023-11-24T05:04:05.226Z,492.88
2023-11-24T05:05:05.145Z,493.24
2023-11-24T05:06:05.118Z,502.50
2023-11-24T05:07:05.264Z,513.68
2023-11-24T05:08:05.103Z,518.46
2023-11-24T05:09:05.125Z,522.10
2023-11-24T05:10:05.168Z,529.53
2023-11-24T05:12:41.524Z,355.05
2023-11-24T05:13:16.618Z,404.92
2023-11-24T05:14:18.817Z,428.23
2023-11-24T05:15:16.406Z,442.97
2023-11-24T05:16:25.602Z,444.74
2023-11-24T05:17:16.198Z,470.04
2023-11-24T05:18:16.220Z,487.85
2023-11-24T05:19:16.176Z,514.47
2023-11-24T05:20:16.154Z,535.89
2023-11-24T05:21:16.160Z,545.50
2023-11-24T05:22:16.182Z,553.16
2023-11-24T05:23:16.215Z,562.46
2023-11-24T05:24:16.156Z,565.79
2023-11-24T05:25:16.146Z,571.10
2023-11-24T05:26:16.134Z,592.85
2023-11-24T05:27:16.128Z,591.80
2023-11-24T05:28:16.070Z,598.15
2023-11-24T05:29:16.089Z,599.22
2023-11-24T05:30:16.263Z,607.38
2023-11-24T05:31:16.125Z,616.33
2023-11-24T05:32:16.043Z,614.63
2023-11-24T05:33:16.051Z,616.33
2023-11-24T05:34:16.064Z,637.46
2023-11-24T05:35:16.072Z,641.73
2023-11-24T05:36:16.054Z,644.21
2023-11-24T05:37:16.048Z,641.73
2023-11-24T05:38:16.002Z,646.70
2023-11-24T05:39:15.961Z,646.07
2023-11-24T05:40:15.973Z,641.73
2023-11-24T05:41:15.974Z,642.97
2023-11-24T05:42:16.017Z,634.44
2023-11-24T05:43:15.979Z,641.73
2023-11-24T05:44:15.924Z,651.73
2023-11-24T05:45:15.906Z,678.15
2023-11-24T05:46:16.040Z,695.05
2023-11-24T05:47:15.922Z,703.08
2023-11-24T05:48:15.942Z,699.41
2023-11-24T05:49:15.865Z,700.87
2023-11-24T05:50:15.862Z,720.48
2023-11-24T05:51:15.846Z,728.32
2023-11-24T05:52:15.888Z,726.74
2023-11-24T05:53:15.854Z,737.15
2023-11-24T05:54:16.258Z,744.53
2023-11-24T05:55:15.879Z,748.18
2023-11-24T05:56:15.823Z,761.36
2023-11-24T05:57:15.793Z,755.35
2023-11-24T05:58:15.786Z,753.66
2023-11-24T05:59:15.849Z,753.23
2023-11-24T06:00:15.758Z,758.35
2023-11-24T06:01:15.800Z,756.63
2023-11-24T06:02:15.828Z,739.59
2023-11-24T06:03:15.717Z,729.91
2023-11-24T06:04:15.808Z,743.70
2023-11-24T06:05:15.863Z,747.77
2023-11-24T06:06:15.712Z,769.67
2023-11-24T06:07:15.693Z,774.12
2023-11-24T06:08:15.670Z,799.05
2023-11-24T06:09:15.679Z,822.09
2023-11-24T06:10:15.744Z,841.18
2023-11-24T06:11:15.698Z,855.68
2023-11-24T06:12:15.659Z,849.71
2023-11-24T06:13:15.655Z,864.52
2023-11-24T06:14:15.612Z,863.96
2023-11-24T06:15:15.590Z,890.36
2023-11-24T06:16:15.608Z,907.86
2023-11-24T06:17:15.635Z,924.14
2023-11-24T06:18:15.535Z,947.67
2023-11-24T06:19:15.636Z,956.46
2023-11-24T06:20:15.557Z,973.84
2023-11-24T06:21:15.567Z,987.47
2023-11-24T06:22:15.551Z,993.33
2023-11-24T06:23:15.572Z,991.86
2023-11-24T06:24:15.536Z,1020.56
2023-11-24T06:25:16.522Z,1037.15
2023-11-24T06:26:15.454Z,1046.06
2023-11-24T06:27:15.474Z,1082.39
2023-11-24T06:28:15.452Z,1098.36
2023-11-24T06:29:15.511Z,1091.20
2023-11-24T06:30:15.477Z,1092.09
2023-11-24T06:31:15.614Z,1090.32
2023-11-24T06:32:15.413Z,1082.39
2023-11-24T06:33:15.475Z,1072.86
2023-11-24T06:34:15.495Z,1075.44
2023-11-24T06:35:15.459Z,1104.70
2023-11-24T06:36:15.366Z,1122.28
2023-11-24T06:37:15.453Z,1130.80
2023-11-24T06:38:15.368Z,1119.46
2023-11-24T06:39:15.356Z,1101.97
2023-11-24T06:40:15.566Z,1074.58
2023-11-24T06:41:15.385Z,1037.95
2023-11-24T06:42:15.296Z,1022.12
2023-11-24T06:43:15.311Z,1023.68
2023-11-24T06:44:15.286Z,1038.76
2023-11-24T06:45:15.395Z,1033.15
2023-11-24T06:46:15.488Z,1028.40
2023-11-24T06:47:15.310Z,1022.12
2023-11-24T06:48:15.275Z,1019.01
2023-11-24T06:49:15.247Z,1020.56
2023-11-24T06:50:15.218Z,1015.92
2023-11-24T06:51:15.256Z,993.33
2023-11-24T06:52:15.227Z,974.54
2023-11-24T06:53:15.192Z,962.64
2023-11-24T06:54:15.205Z,945.66
2023-11-24T06:55:15.243Z,922.23
2023-11-24T06:56:15.174Z,902.36
2023-11-24T06:57:15.807Z,891.55
2023-11-24T06:58:15.214Z,870.13
2023-11-24T06:59:15.161Z,870.13
2023-11-24T07:00:15.119Z,855.68
2023-11-24T07:01:15.144Z,832.82
2023-11-24T07:02:15.114Z,799.52
2023-11-24T07:03:15.326Z,785.00
2023-11-24T07:04:15.121Z,771.89
2023-11-24T07:05:15.071Z,749.53
2023-11-24T07:06:15.091Z,715.86
2023-11-24T07:07:15.113Z,676.78
2023-11-24T07:08:15.022Z,641.12
2023-11-24T07:09:15.088Z,616.33
2023-11-24T07:10:15.437Z,610.70
2023-11-24T07:11:15.008Z,573.55
2023-11-24T07:12:15.049Z,551.80
2023-11-24T07:13:15.025Z,525.38
2023-11-24T07:14:14.985Z,499.13
2023-11-24T07:15:15.040Z,471.03
2023-11-24T07:16:15.014Z,456.57
2023-11-24T07:17:14.988Z,458.76
2023-11-24T07:19:24.795Z,313.18
2023-11-24T07:20:25.686Z,326.21
2023-11-24T07:21:25.674Z,325.57
2023-11-24T07:22:25.667Z,321.75
2023-11-24T07:23:25.654Z,308.20
2023-11-24T07:24:50.212Z,299.51
2023-11-24T07:25:25.607Z,291.04
2023-11-24T07:26:25.589Z,278.02
2023-11-24T07:27:25.576Z,270.71
2023-11-24T07:28:25.569Z,259.00
2023-11-24T07:29:25.607Z,249.20
2023-11-24T07:30:25.573Z,238.03
2023-11-24T07:31:25.556Z,232.98
2023-11-24T07:32:25.544Z,222.29
2023-11-24T07:33:25.525Z,209.69
2023-11-24T07:34:25.682Z,201.85
2023-11-24T07:35:25.541Z,194.12
2023-11-24T07:36:25.478Z,190.42
2023-11-24T07:37:25.484Z,187.49
2023-11-24T07:38:25.499Z,186.11
2023-11-24T07:39:25.463Z,184.96
2023-11-24T07:40:25.546Z,189.21
2023-11-24T07:41:25.441Z,194.81
2023-11-24T07:42:25.446Z,202.47
2023-11-24T07:43:25.409Z,208.10
2023-11-24T07:44:25.407Z,211.44
2023-11-24T07:45:25.451Z,215.31
2023-11-24T07:46:25.419Z,216.30
2023-11-24T07:47:28.342Z,217.30
2023-11-24T07:48:25.367Z,216.16
2023-11-24T07:49:25.363Z,215.74
2023-11-24T07:50:25.409Z,214.19
2023-11-24T07:51:25.334Z,212.40
2023-11-24T07:52:25.328Z,212.12
2023-11-24T07:53:25.306Z,210.50
2023-11-24T07:54:25.305Z,209.56
2023-11-24T07:55:25.303Z,210.77
2023-11-24T07:56:25.332Z,212.54
2023-11-24T07:57:25.253Z,213.36
2023-11-24T07:58:25.288Z,214.47
2023-11-24T07:59:25.249Z,213.36
2023-11-24T08:00:25.285Z,212.40
2023-11-24T08:01:25.403Z,213.64
2023-11-24T08:02:25.290Z,213.78
2023-11-24T08:03:25.255Z,212.12
2023-11-24T08:04:25.306Z,212.81
2023-11-24T08:05:25.182Z,213.22
2023-11-24T08:06:25.222Z,210.63
2023-11-24T08:07:25.288Z,213.64
2023-11-24T08:08:25.165Z,210.63
2023-11-24T08:09:25.146Z,210.23
2023-11-24T08:10:25.147Z,212.40
2023-11-24T08:11:25.164Z,213.22
2023-11-24T08:12:25.114Z,212.12
2023-11-24T08:13:25.107Z,210.77
2023-11-24T08:14:25.379Z,209.16
2023-11-24T08:15:25.075Z,208.24
2023-11-24T08:16:25.222Z,207.06
2023-11-24T08:17:25.050Z,204.61
2023-11-24T08:18:25.062Z,206.41
2023-11-24T08:19:25.085Z,205.12
2023-11-24T08:20:25.017Z,205.12
2023-11-24T08:21:25.096Z,204.36
2023-11-24T08:22:25.006Z,203.22
2023-11-24T08:23:25.008Z,204.74
2023-11-24T08:24:25.005Z,205.12
2023-11-24T08:25:25.000Z,204.10
2023-11-24T08:26:25.030Z,204.61
2023-11-24T08:27:24.984Z,203.60
2023-11-24T08:28:24.949Z,203.10
2023-11-24T08:29:24.952Z,202.35
2023-11-24T08:30:24.948Z,202.10
2023-11-24T08:31:24.938Z,202.60
2023-11-24T08:32:25.007Z,202.23
2023-11-24T08:33:24.909Z,201.61
2023-11-24T08:34:25.009Z,198.69
2023-11-24T08:35:24.873Z,198.45
2023-11-24T08:36:24.872Z,195.50
2023-11-24T08:37:24.852Z,194.01
2023-11-24T08:38:24.890Z,191.52
2023-11-24T08:39:24.849Z,190.64
2023-11-24T08:40:24.843Z,187.38
2023-11-24T08:41:31.176Z,186.11
2023-11-24T08:42:24.824Z,185.49
2023-11-24T08:43:24.802Z,183.66
2023-11-24T08:44:24.851Z,182.46
2023-11-24T08:45:24.795Z,179.91
2023-11-24T08:46:24.812Z,177.81
2023-11-24T08:47:24.866Z,175.95
2023-11-24T08:48:24.771Z,173.22
2023-11-24T08:49:24.791Z,171.97
2023-11-24T08:50:24.728Z,170.57
2023-11-24T08:51:24.717Z,169.02
2023-11-24T08:52:24.724Z,167.84
2023-11-24T08:53:24.703Z,167.16
2023-11-24T08:54:24.706Z,165.19
2023-11-24T08:55:24.743Z,162.15
2023-11-24T08:56:24.673Z,159.68
2023-11-24T08:57:24.680Z,159.37
2023-11-24T08:58:24.650Z,159.07
2023-11-24T08:59:24.696Z,159.98
2023-11-24T09:00:24.624Z,160.90
2023-11-24T09:01:24.719Z,161.68
2023-11-24T09:02:24.708Z,162.78
2023-11-24T09:03:24.590Z,165.19
2023-11-24T09:04:24.707Z,167.84
2023-11-24T09:05:24.580Z,170.05
2023-11-24T09:06:24.556Z,169.71
2023-11-24T09:07:24.559Z,171.09
2023-11-24T09:08:24.556Z,175.58
2023-11-24T09:09:24.562Z,176.50
2023-11-24T09:10:24.545Z,175.21
2023-11-24T09:11:24.530Z,174.30
2023-11-24T09:12:24.518Z,173.57
2023-11-24T09:13:24.511Z,173.22
2023-11-24T09:14:24.556Z,174.66
2023-11-24T09:15:24.500Z,176.87
2023-11-24T09:16:24.557Z,178.95
2023-11-24T09:17:24.457Z,180.88
2023-11-24T09:18:24.446Z,180.88
2023-11-24T09:19:24.535Z,182.46
2023-11-24T09:20:24.491Z,182.46
2023-11-24T09:21:24.411Z,183.26
2023-11-24T09:22:24.455Z,181.87
2023-11-24T09:23:24.430Z,183.06
2023-11-24T09:24:24.459Z,185.49
2023-11-24T09:25:24.464Z,185.59
2023-11-24T09:26:24.372Z,187.49
2023-11-24T09:27:24.369Z,187.38
2023-11-24T09:28:24.350Z,187.38
2023-11-24T09:29:24.328Z,187.17
2023-11-24T09:30:24.403Z,187.60
2023-11-24T09:31:24.396Z,189.21
2023-11-24T09:32:24.412Z,189.32
2023-11-24T09:33:24.306Z,188.89
2023-11-24T09:34:27.379Z,189.76
2023-11-24T09:35:24.339Z,190.64
2023-11-24T09:36:24.269Z,196.44
2023-11-24T09:37:24.261Z,198.69
2023-11-24T09:38:24.254Z,199.17
2023-11-24T09:39:24.238Z,197.50
2023-11-24T09:40:24.417Z,199.05
2023-11-24T09:41:24.254Z,200.62
2023-11-24T09:42:24.396Z,204.61
2023-11-24T09:43:24.236Z,206.28
2023-11-24T09:44:24.188Z,209.43
2023-11-24T09:45:24.240Z,209.03
2023-11-24T09:46:24.232Z,208.50
2023-11-24T09:47:24.258Z,212.81
2023-11-24T09:48:24.769Z,215.31
2023-11-24T09:49:24.185Z,217.59
2023-11-24T09:50:24.113Z,220.50
2023-11-24T09:51:24.139Z,222.89
2023-11-24T09:52:24.133Z,225.02
2023-11-24T09:53:24.110Z,226.73
2023-11-24T09:54:24.111Z,228.14
2023-11-24T09:55:27.111Z,232.49
2023-11-24T09:56:24.088Z,237.86
2023-11-24T09:57:24.042Z,244.03
2023-11-24T09:58:24.055Z,246.04
2023-11-24T09:59:24.060Z,249.01
2023-11-24T10:00:24.036Z,250.53
2023-11-24T10:01:24.286Z,253.03
2023-11-24T10:02:24.021Z,254.99
2023-11-24T10:03:24.075Z,260.23
2023-11-24T10:04:24.057Z,262.09
2023-11-24T10:05:23.965Z,266.98
2023-11-24T10:06:23.974Z,273.63
2023-11-24T10:07:23.984Z,283.77
2023-11-24T10:08:23.928Z,287.49
2023-11-24T10:09:23.910Z,289.00
2023-11-24T10:10:23.916Z,297.35
2023-11-24T10:11:23.914Z,299.51
2023-11-24T10:12:23.938Z,299.24
2023-11-24T10:13:23.919Z,296.01
2023-11-24T10:14:23.885Z,293.64
2023-11-24T10:15:24.005Z,288.49
2023-11-24T10:16:23.944Z,289.00
2023-11-24T10:17:23.913Z,286.49
2023-11-24T10:18:23.889Z,284.26
2023-11-24T10:19:23.894Z,284.02
2023-11-24T10:20:24.068Z,289.51
2023-11-24T10:21:30.479Z,291.04
2023-11-24T10:22:23.886Z,291.04
2023-11-24T10:23:23.804Z,289.00
2023-11-24T10:24:23.790Z,292.33
2023-11-24T10:25:23.807Z,290.79
2023-11-24T10:26:23.769Z,286.98
2023-11-24T10:27:23.797Z,280.39
2023-11-24T10:28:23.796Z,279.20
2023-11-24T10:29:23.738Z,278.49
2023-11-24T10:30:23.725Z,278.73
2023-11-24T10:31:23.793Z,279.67
2023-11-24T10:32:23.813Z,277.09
2023-11-24T10:33:35.055Z,275.92
2023-11-24T10:34:23.748Z,276.16
2023-11-24T10:35:23.814Z,276.85
2023-11-24T10:36:23.665Z,275.46
2023-11-24T10:37:23.670Z,274.09
2023-11-24T10:38:23.640Z,271.60
2023-11-24T10:39:23.640Z,270.49
2023-11-24T10:40:23.653Z,269.38
2023-11-24T10:41:23.620Z,266.55
2023-11-24T10:42:23.691Z,263.35
2023-11-24T10:43:23.630Z,259.00
2023-11-24T10:44:23.592Z,254.99
2023-11-24T10:45:23.648Z,252.26
2023-11-24T10:46:23.643Z,249.01
2023-11-24T10:47:23.641Z,246.40
2023-11-24T10:48:23.578Z,243.31
2023-11-24T10:49:23.573Z,239.77
2023-11-24T10:50:23.536Z,239.94
2023-11-24T10:51:25.875Z,239.94
2023-11-24T10:52:23.509Z,240.82
2023-11-24T10:53:23.545Z,240.12
2023-11-24T10:54:23.501Z,239.94
2023-11-24T10:55:23.535Z,239.77
2023-11-24T10:56:23.465Z,239.24
2023-11-24T10:57:23.450Z,238.03
2023-11-24T10:58:23.493Z,236.67
2023-11-24T10:59:23.432Z,234.81
2023-11-24T11:00:23.450Z,231.18
2023-11-24T11:01:23.617Z,229.09
2023-11-24T11:02:23.591Z,224.41
2023-11-24T11:03:23.428Z,221.10
2023-11-24T11:04:23.505Z,218.46
2023-11-24T11:05:23.383Z,218.17
2023-11-24T11:06:23.368Z,215.46
2023-11-24T11:07:23.347Z,215.88
2023-11-24T11:08:23.350Z,215.31
2023-11-24T11:09:23.370Z,212.81
2023-11-24T11:10:23.399Z,212.67
2023-11-24T11:11:23.317Z,210.36
2023-11-24T11:12:23.309Z,212.40
2023-11-24T11:13:23.315Z,211.31
2023-11-24T11:14:23.457Z,210.36
2023-11-24T11:15:23.290Z,211.85
2023-11-24T11:16:23.342Z,212.81
2023-11-24T11:17:23.259Z,211.99
2023-11-24T11:18:23.245Z,212.40
2023-11-24T11:19:23.219Z,211.58
2023-11-24T11:20:23.267Z,209.29
2023-11-24T11:21:23.250Z,209.03
2023-11-24T11:22:23.283Z,207.97
2023-11-24T11:23:23.280Z,208.50
2023-11-24T11:24:23.240Z,206.54
2023-11-24T11:25:23.261Z,208.10
2023-11-24T11:26:23.159Z,207.32
2023-11-24T11:27:23.146Z,206.93
2023-11-24T11:28:23.155Z,206.15
2023-11-24T11:29:23.142Z,207.97
2023-11-24T11:30:23.193Z,206.93
2023-11-24T11:31:23.215Z,206.41
2023-11-24T11:32:24.982Z,207.45
2023-11-24T11:33:23.135Z,206.93
2023-11-24T11:34:23.174Z,205.12
2023-11-24T11:35:23.116Z,206.54
2023-11-24T11:36:23.058Z,206.80
2023-11-24T11:37:23.069Z,205.89
2023-11-24T11:38:24.367Z,204.87
2023-11-24T11:39:23.011Z,207.97
2023-11-24T11:40:23.138Z,206.54
2023-11-24T11:41:23.010Z,206.93
2023-11-24T11:42:23.003Z,206.93
2023-11-24T11:43:23.018Z,204.49
2023-11-24T11:44:25.144Z,205.51
2023-11-24T11:45:23.005Z,203.60
2023-11-24T11:46:23.089Z,204.74
2023-11-24T11:47:23.315Z,203.47
2023-11-24T11:48:22.959Z,204.87
2023-11-24T11:49:22.947Z,203.85
2023-11-24T11:50:22.927Z,203.60
2023-11-24T11:51:22.936Z,203.73
2023-11-24T11:52:23.078Z,202.60
2023-11-24T11:53:22.892Z,202.35
2023-11-24T11:54:22.888Z,202.85
2023-11-24T11:55:25.273Z,200.87
2023-11-24T11:56:22.876Z,200.75
2023-11-24T11:57:22.870Z,200.14
2023-11-24T11:58:22.836Z,199.05
2023-11-24T11:59:22.825Z,199.05
2023-11-24T12:00:22.799Z,199.41
2023-11-24T12:01:23.091Z,200.38
2023-11-24T12:02:23.030Z,199.65
2023-11-24T12:03:22.792Z,200.75
2023-11-24T12:04:22.834Z,200.75
2023-11-24T12:05:22.765Z,201.36
2023-11-24T12:06:22.756Z,202.10
2023-11-24T12:07:22.827Z,202.60
2023-11-24T12:08:22.718Z,203.98
2023-11-24T12:09:22.727Z,201.48
2023-11-24T12:10:22.848Z,202.10
2023-11-24T12:11:22.714Z,202.60
2023-11-24T12:12:22.681Z,201.98
2023-11-24T12:13:22.718Z,202.60
2023-11-24T12:14:22.659Z,203.60
2023-11-24T12:15:22.639Z,202.72
2023-11-24T12:16:22.722Z,207.19
2023-11-24T12:17:22.626Z,206.67
2023-11-24T12:18:22.633Z,208.76
2023-11-24T12:19:22.659Z,211.17
2023-11-24T12:20:22.593Z,213.09
2023-11-24T12:21:22.580Z,215.74
2023-11-24T12:22:22.691Z,218.60
2023-11-24T12:23:22.576Z,220.80
2023-11-24T12:24:22.561Z,222.59
2023-11-24T12:25:22.965Z,223.19
2023-11-24T12:26:22.551Z,225.18